Newark, New Jersey
Current Conditions -  °F | °C
As of 6:51 PM on Sunday 25 Jan 2015 (Local Time) from KEWR Reporting Station
Broken Clouds Broken Clouds  
Wind Chill: 26°   Ceiling: 25000
Heat Index: 35°   Visibility: 10mi
Dew Point:   Wind: 13mph
Humidity: 34%   Direction: 340°NNW
Pressure: 29.91"   Gusts: NA
Location:  40.73°N, 74.17°W
Report Text: KEWR 252351Z 34011KT 10SM SCT080 SCT140 BKN250 02/M13 A2991 RMK AO2 SLP129 4/002 T00171128 10056 20011 51037 $
Loading
Personal Weather Stations






























Interactive Weather Map New forecast layout! Learn more

10-Day Weather Forecast

Advertisements
Track Severe Weather on mobile